Commit f2f8bf14 authored by Vincent Moisan's avatar Vincent Moisan
Browse files

Merge branch 'master' of git.constantvzw.org:relearn.can-it-scale-to-the-universe

parents 60b66205 ab702cfb
<?xml version='1.0' encoding='UTF-8'?>
<gpx xmlns:xsi="http://www.w3.org/2001/XMLSchema-instance" xmlns="http://www.topografix.com/GPX/1/0" xsi:schemaLocation="http://www.topografix.com/GPX/1/0 http://www.topografix.com/GPX/1/0/gpx.xsd" version="1.0" creator="Vespucci">
<trk>
<trkseg>
<trkpt lat="50.866846" lon="4.368462">
<ele>66.500000</ele>
<time>2013-08-28T13:28:28Z</time>
</trkpt>
<trkpt lat="50.866899" lon="4.368454">
<ele>70.300003</ele>
<time>2013-08-28T13:28:44Z</time>
</trkpt>
<trkpt lat="50.866951" lon="4.368412">
<ele>80.300003</ele>
<time>2013-08-28T13:29:13Z</time>
</trkpt>
<trkpt lat="50.866995" lon="4.368372">
<ele>84.000000</ele>
<time>2013-08-28T13:29:18Z</time>
</trkpt>
<trkpt lat="50.867040" lon="4.368334">
<ele>84.000000</ele>
<time>2013-08-28T13:29:22Z</time>
</trkpt>
<trkpt lat="50.867013" lon="4.368274">
<ele>82.699997</ele>
<time>2013-08-28T13:29:30Z</time>
</trkpt>
<trkpt lat="50.867062" lon="4.368323">
<ele>85.900002</ele>
<time>2013-08-28T13:29:39Z</time>
</trkpt>
<trkpt lat="50.867094" lon="4.368272">
<ele>82.199997</ele>
<time>2013-08-28T13:29:47Z</time>
</trkpt>
<trkpt lat="50.867082" lon="4.368201">
<ele>85.699997</ele>
<time>2013-08-28T13:30:04Z</time>
</trkpt>
<trkpt lat="50.867127" lon="4.368166">
<ele>84.500000</ele>
<time>2013-08-28T13:30:11Z</time>
</trkpt>
<trkpt lat="50.867117" lon="4.368094">
<ele>84.000000</ele>
<time>2013-08-28T13:30:17Z</time>
</trkpt>
<trkpt lat="50.867140" lon="4.368033">
<ele>83.699997</ele>
<time>2013-08-28T13:30:21Z</time>
</trkpt>
<trkpt lat="50.867172" lon="4.367956">
<ele>83.300003</ele>
<time>2013-08-28T13:30:26Z</time>
</trkpt>
<trkpt lat="50.867192" lon="4.367876">
<ele>81.500000</ele>
<time>2013-08-28T13:30:29Z</time>
</trkpt>
<trkpt lat="50.867165" lon="4.367776">
<ele>80.300003</ele>
<time>2013-08-28T13:30:32Z</time>
</trkpt>
<trkpt lat="50.867146" lon="4.367703">
<ele>80.599998</ele>
<time>2013-08-28T13:30:35Z</time>
</trkpt>
<trkpt lat="50.867181" lon="4.367642">
<ele>81.000000</ele>
<time>2013-08-28T13:30:39Z</time>
</trkpt>
<trkpt lat="50.867199" lon="4.367562">
<ele>80.699997</ele>
<time>2013-08-28T13:30:45Z</time>
</trkpt>
<trkpt lat="50.867242" lon="4.367514">
<ele>79.500000</ele>
<time>2013-08-28T13:30:48Z</time>
</trkpt>
<trkpt lat="50.867288" lon="4.367470">
<ele>79.199997</ele>
<time>2013-08-28T13:30:51Z</time>
</trkpt>
<trkpt lat="50.867329" lon="4.367419">
<ele>79.500000</ele>
<time>2013-08-28T13:30:56Z</time>
</trkpt>
<trkpt lat="50.867375" lon="4.367358">
<ele>80.000000</ele>
<time>2013-08-28T13:31:02Z</time>
</trkpt>
<trkpt lat="50.867594" lon="4.367362">
<ele>80.800003</ele>
<time>2013-08-28T13:31:03Z</time>
</trkpt>
<trkpt lat="50.867558" lon="4.367297">
<ele>81.599998</ele>
<time>2013-08-28T13:31:04Z</time>
</trkpt>
<trkpt lat="50.867502" lon="4.367213">
<ele>81.699997</ele>
<time>2013-08-28T13:31:06Z</time>
</trkpt>
<trkpt lat="50.867476" lon="4.367151">
<ele>82.500000</ele>
<time>2013-08-28T13:31:09Z</time>
</trkpt>
<trkpt lat="50.867524" lon="4.367164">
<ele>88.300003</ele>
<time>2013-08-28T13:31:19Z</time>
</trkpt>
<trkpt lat="50.867469" lon="4.367282">
<ele>87.199997</ele>
<time>2013-08-28T13:31:39Z</time>
</trkpt>
<trkpt lat="50.867436" lon="4.367337">
<ele>86.900002</ele>
<time>2013-08-28T13:31:40Z</time>
</trkpt>
<trkpt lat="50.867187" lon="4.367529">
<ele>86.000000</ele>
<time>2013-08-28T13:31:41Z</time>
</trkpt>
<trkpt lat="50.867117" lon="4.367568">
<ele>85.199997</ele>
<time>2013-08-28T13:31:42Z</time>
</trkpt>
<trkpt lat="50.867028" lon="4.367607">
<ele>84.400002</ele>
<time>2013-08-28T13:31:43Z</time>
</trkpt>
<trkpt lat="50.866968" lon="4.367650">
<ele>84.400002</ele>
<time>2013-08-28T13:31:44Z</time>
</trkpt>
<trkpt lat="50.866914" lon="4.367697">
<ele>84.099998</ele>
<time>2013-08-28T13:31:45Z</time>
</trkpt>
<trkpt lat="50.866870" lon="4.367748">
<ele>83.099998</ele>
<time>2013-08-28T13:31:46Z</time>
</trkpt>
<trkpt lat="50.866812" lon="4.367856">
<ele>82.000000</ele>
<time>2013-08-28T13:31:48Z</time>
</trkpt>
<trkpt lat="50.866777" lon="4.367970">
<ele>81.699997</ele>
<time>2013-08-28T13:31:50Z</time>
</trkpt>
<trkpt lat="50.866768" lon="4.368091">
<ele>83.300003</ele>
<time>2013-08-28T13:31:52Z</time>
</trkpt>
<trkpt lat="50.866762" lon="4.368191">
<ele>84.800003</ele>
<time>2013-08-28T13:31:54Z</time>
</trkpt>
<trkpt lat="50.866733" lon="4.368283">
<ele>85.099998</ele>
<time>2013-08-28T13:31:57Z</time>
</trkpt>
<trkpt lat="50.866690" lon="4.368364">
<ele>84.599998</ele>
<time>2013-08-28T13:32:00Z</time>
</trkpt>
<trkpt lat="50.866670" lon="4.368457">
<ele>84.800003</ele>
<time>2013-08-28T13:32:03Z</time>
</trkpt>
<trkpt lat="50.866646" lon="4.368525">
<ele>84.800003</ele>
<time>2013-08-28T13:32:06Z</time>
</trkpt>
<trkpt lat="50.866608" lon="4.368566">
<ele>84.800003</ele>
<time>2013-08-28T13:32:09Z</time>
</trkpt>
</trkseg>
</trk>
</gpx>
IN;IP0,0,4000,4000;SC,100,0,100;
IN;IP0,0,4000,4000;SC0,100,0,100;
SP1;
PU;PA0,0;
DT$,2;
......
IN;IP0,0,4000,4000;SC0,100,0,100;
IN;
IP0,0,16158,11040;
SC1488,0,0,1052;
SP2;
PU;PA0,0;
PU;PA100,100;
DT$,2;
SI0.9,2;
LB
\ ETX
\\ ETX
\ ETX
LB \ $
PA0,50;
LB \\ $
PA0,50;
LB \ $
Markdown is supported
0% or .
You are about to add 0 people to the discussion. Proceed with caution.
Finish editing this message first!
Please register or to comment